createdAt,value
2018-08-07T00:02:27.968Z,100454.16
2018-08-07T00:04:56.460Z,100447.59
2018-08-07T00:07:24.889Z,100443.42
2018-08-07T00:09:53.337Z,100445.50
2018-08-07T00:12:21.783Z,100447.34
2018-08-07T00:14:50.193Z,100444.48
2018-08-07T00:17:18.614Z,100442.97
2018-08-07T00:19:47.044Z,100432.34
2018-08-07T00:22:15.422Z,100425.27
2018-08-07T00:24:43.874Z,100421.36
2018-08-07T00:27:12.356Z,100422.53
2018-08-07T00:29:40.800Z,100413.30
2018-08-07T00:32:10.452Z,100413.30
2018-08-07T00:34:38.868Z,100413.68
2018-08-07T00:37:07.351Z,100415.23
2018-08-07T00:39:35.761Z,100414.31
2018-08-07T00:42:04.226Z,100408.70
2018-08-07T00:44:32.663Z,100408.70
2018-08-07T00:47:01.517Z,100413.30
2018-08-07T00:49:29.932Z,100414.22
2018-08-07T00:51:58.358Z,100409.03
2018-08-07T00:54:26.795Z,100406.92
2018-08-07T00:56:55.210Z,100408.44
2018-08-07T00:59:24.215Z,100409.42
2018-08-07T01:01:52.643Z,100413.09
2018-08-07T01:04:21.080Z,100407.66
2018-08-07T01:06:49.508Z,100406.53
2018-08-07T01:09:17.940Z,100411.75
2018-08-07T01:11:46.456Z,100409.81
2018-08-07T01:14:14.940Z,100413.09
2018-08-07T01:16:43.517Z,100412.31
2018-08-07T01:19:11.967Z,100410.27
2018-08-07T01:21:40.347Z,100412.16
2018-08-07T01:24:08.836Z,100403.95
2018-08-07T01:26:37.241Z,100402.33
2018-08-07T01:29:05.947Z,100407.95
2018-08-07T01:31:34.328Z,100409.92
2018-08-07T01:34:02.685Z,100400.41
2018-08-07T01:36:31.115Z,100401.45
2018-08-07T01:38:59.542Z,100398.12
2018-08-07T01:41:27.953Z,100408.21
2018-08-07T01:43:56.401Z,100399.34
2018-08-07T01:46:24.823Z,100405.94
2018-08-07T01:48:53.511Z,100403.59
2018-08-07T01:51:21.960Z,100404.83
2018-08-07T01:53:50.353Z,100414.48
2018-08-07T01:56:18.744Z,100413.02
2018-08-07T01:58:47.116Z,100411.29
2018-08-07T02:01:15.539Z,100408.03
2018-08-07T02:03:43.961Z,100404.51
2018-08-07T02:06:12.392Z,100403.40
2018-08-07T02:08:40.784Z,100404.50
2018-08-07T02:11:09.256Z,100412.33
2018-08-07T02:13:37.653Z,100413.06
2018-08-07T02:16:06.135Z,100407.68
2018-08-07T02:18:34.531Z,100401.91
2018-08-07T02:21:02.998Z,100398.78
2018-08-07T02:23:31.392Z,100398.52
2018-08-07T02:25:59.834Z,100394.73
2018-08-07T02:28:28.336Z,100394.28
2018-08-07T02:30:56.715Z,100398.59
2018-08-07T02:33:25.156Z,100397.41
2018-08-07T02:35:53.528Z,100393.50
2018-08-07T02:38:21.964Z,100392.84
2018-08-07T02:40:50.354Z,100388.27
2018-08-07T02:43:18.847Z,100392.45
2018-08-07T02:45:47.300Z,100390.30
2018-08-07T02:48:15.716Z,100387.09
2018-08-07T02:50:44.157Z,100392.63
2018-08-07T02:53:12.611Z,100395.62
2018-08-07T02:55:41.051Z,100391.38
2018-08-07T02:58:09.463Z,100385.45
2018-08-07T03:00:42.519Z,100387.52
2018-08-07T03:03:10.964Z,100382.71
2018-08-07T03:05:39.449Z,100391.03
2018-08-07T03:08:08.322Z,100383.86
2018-08-07T03:10:36.854Z,100385.78
2018-08-07T03:13:05.301Z,100382.56
2018-08-07T03:15:33.744Z,100386.91
2018-08-07T03:18:02.229Z,100384.59
2018-08-07T03:20:30.678Z,100380.89
2018-08-07T03:22:59.147Z,100385.86
2018-08-07T03:25:27.539Z,100380.72
2018-08-07T03:27:55.988Z,100381.08
2018-08-07T03:30:24.389Z,100376.56
2018-08-07T03:32:52.827Z,100381.93
2018-08-07T03:35:21.264Z,100377.45
2018-08-07T03:37:49.648Z,100385.59
2018-08-07T03:40:20.049Z,100383.50
2018-08-07T03:42:48.632Z,100384.46
2018-08-07T03:45:18.335Z,100390.86
2018-08-07T03:47:47.549Z,100393.30
2018-08-07T03:50:16.013Z,100394.86
2018-08-07T03:52:44.456Z,100392.16
2018-08-07T03:55:15.248Z,100389.85
2018-08-07T03:57:44.325Z,100394.07
2018-08-07T04:00:15.762Z,100393.01
2018-08-07T04:02:44.271Z,100394.47
2018-08-07T04:05:12.831Z,100391.14
2018-08-07T04:07:41.221Z,100396.16
2018-08-07T04:10:13.148Z,100402.16
2018-08-07T04:12:41.626Z,100396.91
2018-08-07T04:15:12.092Z,100397.58
2018-08-07T04:17:40.730Z,100397.07
2018-08-07T04:20:11.317Z,100395.83
2018-08-07T04:22:39.788Z,100404.29
2018-08-07T04:25:08.208Z,100401.40
2018-08-07T04:27:36.656Z,100401.05
2018-08-07T04:30:08.180Z,100401.50
2018-08-07T04:32:36.594Z,100397.80
2018-08-07T04:35:05.541Z,100399.72
2018-08-07T04:37:34.152Z,100395.08
2018-08-07T04:40:02.630Z,100397.67
2018-08-07T04:42:31.059Z,100402.77
2018-08-07T04:44:59.492Z,100402.51
2018-08-07T04:47:27.962Z,100397.27
2018-08-07T04:49:56.381Z,100396.86
2018-08-07T04:52:24.848Z,100397.36
2018-08-07T04:54:53.273Z,100400.35
2018-08-07T04:57:21.705Z,100399.73
2018-08-07T04:59:50.168Z,100402.05
2018-08-07T05:02:18.617Z,100402.67
2018-08-07T05:04:47.071Z,100406.27
2018-08-07T05:07:15.478Z,100403.34
2018-08-07T05:09:43.895Z,100402.33
2018-08-07T05:12:12.911Z,100404.71
2018-08-07T05:14:41.370Z,100409.73
2018-08-07T05:17:09.748Z,100407.92
2018-08-07T05:19:38.768Z,100409.05
2018-08-07T05:22:08.233Z,100412.84
2018-08-07T05:24:36.668Z,100414.86
2018-08-07T05:27:05.128Z,100412.55
2018-08-07T05:29:33.530Z,100408.84
2018-08-07T05:32:02.003Z,100409.73
2018-08-07T05:34:30.453Z,100412.12
2018-08-07T05:36:58.856Z,100406.33
2018-08-07T05:39:27.280Z,100407.37
2018-08-07T05:41:55.676Z,100403.41
2018-08-07T05:44:24.060Z,100404.92
2018-08-07T05:46:52.575Z,100399.89
2018-08-07T05:49:20.953Z,100406.09
2018-08-07T05:51:49.629Z,100401.05
2018-08-07T05:54:18.031Z,100402.61
2018-08-07T05:56:46.546Z,100401.95
2018-08-07T05:59:15.021Z,100402.55
2018-08-07T06:01:43.455Z,100395.73
2018-08-07T06:04:11.982Z,100395.05
2018-08-07T06:06:40.356Z,100399.66
2018-08-07T06:09:09.356Z,100402.80
2018-08-07T06:11:37.856Z,100403.02
2018-08-07T06:14:06.310Z,100400.66
2018-08-07T06:16:34.739Z,100403.53
2018-08-07T06:19:03.223Z,100403.47
2018-08-07T06:21:31.655Z,100404.49
2018-08-07T06:24:00.105Z,100400.21
2018-08-07T06:26:28.567Z,100399.97
2018-08-07T06:28:56.946Z,100405.35
2018-08-07T06:31:25.687Z,100403.53
2018-08-07T06:33:54.075Z,100397.86
2018-08-07T06:36:22.547Z,100397.86
2018-08-07T06:38:50.976Z,100400.34
2018-08-07T06:41:19.407Z,100402.87
2018-08-07T06:43:47.856Z,100397.99
2018-08-07T06:46:16.313Z,100393.04
2018-08-07T06:48:44.755Z,100397.31
2018-08-07T06:51:13.191Z,100391.05
2018-08-07T06:53:41.604Z,100396.06
2018-08-07T06:56:10.011Z,100394.11
2018-08-07T06:58:38.481Z,100393.42
2018-08-07T07:01:07.056Z,100389.95
2018-08-07T07:03:35.463Z,100387.42
2018-08-07T07:06:04.043Z,100389.98
2018-08-07T07:08:32.502Z,100381.59
2018-08-07T07:11:01.587Z,100385.16
2018-08-07T07:13:30.079Z,100375.84
2018-08-07T07:15:58.551Z,100376.16
2018-08-07T07:18:27.526Z,100378.34
2018-08-07T07:20:56.056Z,100378.09
2018-08-07T07:23:25.133Z,100376.19
2018-08-07T07:25:55.216Z,100372.20
2018-08-07T07:28:23.667Z,100379.36
2018-08-07T07:30:52.148Z,100374.27
2018-08-07T07:33:20.552Z,100373.20
2018-08-07T07:35:49.019Z,100370.45
2018-08-07T07:38:17.472Z,100362.67
2018-08-07T07:40:45.885Z,100355.22
2018-08-07T07:43:14.408Z,100357.31
2018-08-07T07:45:42.860Z,100365.67
2018-08-07T07:48:11.260Z,100359.99
2018-08-07T07:50:39.711Z,100358.84
2018-08-07T07:53:08.232Z,100355.61
2018-08-07T07:55:36.682Z,100358.23
2018-08-07T07:58:05.136Z,100357.15
2018-08-07T08:00:33.635Z,100361.23
2018-08-07T08:03:02.949Z,100354.96
2018-08-07T08:05:31.377Z,100353.16
2018-08-07T08:07:59.772Z,100356.31
2018-08-07T08:10:28.236Z,100352.94
2018-08-07T08:12:56.686Z,100351.05
2018-08-07T08:15:25.171Z,100348.05
2018-08-07T08:17:53.643Z,100346.78
2018-08-07T08:20:24.359Z,100347.77
2018-08-07T08:22:53.606Z,100348.16
2018-08-07T08:25:22.076Z,100355.45
2018-08-07T08:27:50.611Z,100347.77
2018-08-07T08:30:19.209Z,100346.56
2018-08-07T08:32:47.860Z,100347.41
2018-08-07T08:35:17.504Z,100342.80
2018-08-07T08:37:46.395Z,100346.12
2018-08-07T08:40:18.319Z,100342.97
2018-08-07T08:42:47.434Z,100342.28
2018-08-07T08:45:20.598Z,100339.42
2018-08-07T08:47:50.575Z,100339.18
2018-08-07T08:50:20.395Z,100331.20
2018-08-07T08:52:48.929Z,100331.63
2018-08-07T08:55:17.438Z,100331.34
2018-08-07T08:57:46.914Z,100330.16
2018-08-07T09:00:31.574Z,100328.58
2018-08-07T09:03:01.544Z,100330.09
2018-08-07T09:05:30.044Z,100323.86
2018-08-07T09:07:58.525Z,100321.13
2018-08-07T09:10:29.500Z,100324.39
2018-08-07T09:12:58.779Z,100316.61
2018-08-07T09:15:27.255Z,100317.09
2018-08-07T09:17:55.742Z,100316.34
2018-08-07T09:20:27.325Z,100317.11
2018-08-07T09:22:56.197Z,100315.16
2018-08-07T09:25:26.024Z,100306.33
2018-08-07T09:27:54.506Z,100304.88
2018-08-07T09:30:25.050Z,100304.51
2018-08-07T09:32:54.276Z,100296.64
2018-08-07T09:35:23.349Z,100300.41
2018-08-07T09:37:51.866Z,100297.36
2018-08-07T09:40:21.452Z,100294.92
2018-08-07T09:42:51.135Z,100293.56
2018-08-07T09:45:22.810Z,100292.16
2018-08-07T09:47:51.264Z,100289.77
2018-08-07T09:50:20.305Z,100291.32
2018-08-07T09:52:49.264Z,100286.86
2018-08-07T09:55:17.764Z,100287.64
2018-08-07T09:57:46.135Z,100287.13
2018-08-07T10:01:20.750Z,100279.25
2018-08-07T10:03:49.222Z,100277.73
2018-08-07T10:06:17.720Z,100279.36
2018-08-07T10:08:46.192Z,100276.06
2018-08-07T10:11:14.721Z,100273.27
2018-08-07T10:13:43.204Z,100270.05
2018-08-07T10:16:11.677Z,100263.91
2018-08-07T10:18:40.385Z,100259.41
2018-08-07T10:21:08.872Z,100250.82
2018-08-07T10:23:37.357Z,100253.93
2018-08-07T10:26:06.064Z,100252.20
2018-08-07T10:28:34.553Z,100248.25
2018-08-07T10:31:03.009Z,100249.25
2018-08-07T10:33:31.500Z,100242.52
2018-08-07T10:35:59.904Z,100237.02
2018-08-07T10:38:28.391Z,100232.06
2018-08-07T10:40:56.919Z,100231.58
2018-08-07T10:43:25.347Z,100233.25
2018-08-07T10:45:53.830Z,100229.28
2018-08-07T10:48:22.288Z,100221.86
2018-08-07T10:50:50.762Z,100225.19
2018-08-07T10:53:19.185Z,100225.20
2018-08-07T10:55:47.676Z,100220.33
2018-08-07T10:58:16.209Z,100212.66
2018-08-07T11:00:44.695Z,100213.02
2018-08-07T11:03:13.103Z,100205.52
2018-08-07T11:05:41.618Z,100203.80
2018-08-07T11:08:10.073Z,100195.38
2018-08-07T11:10:38.551Z,100197.61
2018-08-07T11:13:07.000Z,100194.59
2018-08-07T11:15:35.854Z,100192.14
2018-08-07T11:18:04.552Z,100188.99
2018-08-07T11:20:33.168Z,100185.83
2018-08-07T11:23:02.637Z,100190.47
2018-08-07T11:25:31.833Z,100187.98
2018-08-07T11:28:00.749Z,100184.58
2018-08-07T11:30:30.368Z,100178.48
2018-08-07T11:33:00.136Z,100186.02
2018-08-07T11:35:29.161Z,100181.75
2018-08-07T11:37:59.669Z,100178.40
2018-08-07T11:40:28.216Z,100175.59
2018-08-07T11:42:57.432Z,100174.20
2018-08-07T11:45:27.907Z,100174.91
2018-08-07T11:47:56.477Z,100174.58
2018-08-07T11:50:26.337Z,100176.59
2018-08-07T11:52:54.940Z,100171.28
2018-08-07T11:55:24.102Z,100171.56
2018-08-07T11:57:53.481Z,100164.64
2018-08-07T12:00:27.776Z,100166.84
2018-08-07T12:02:56.236Z,100165.44
2018-08-07T12:05:25.571Z,100161.25
2018-08-07T12:07:54.270Z,100163.63
2018-08-07T12:10:22.800Z,100156.83
2018-08-07T12:12:51.439Z,100150.37
2018-08-07T12:15:23.159Z,100157.17
2018-08-07T12:17:51.648Z,100151.41
2018-08-07T12:20:20.070Z,100147.00
2018-08-07T12:22:48.638Z,100146.97
2018-08-07T12:25:17.893Z,100140.75
2018-08-07T12:27:46.436Z,100145.67
2018-08-07T12:30:20.198Z,100141.06
2018-08-07T12:32:49.329Z,100139.17
2018-08-07T12:35:17.874Z,100130.00
2018-08-07T12:37:46.460Z,100131.77
2018-08-07T12:40:18.421Z,100124.22
2018-08-07T12:42:47.290Z,100118.87
2018-08-07T12:45:17.093Z,100118.61
2018-08-07T12:47:46.110Z,100116.64
2018-08-07T12:50:15.653Z,100116.82
2018-08-07T12:52:44.736Z,100099.86
2018-08-07T12:55:15.817Z,100101.25
2018-08-07T12:57:44.703Z,100096.30
2018-08-07T13:00:20.888Z,100094.30
2018-08-07T13:02:49.552Z,100096.59
2018-08-07T13:05:18.031Z,100108.08
2018-08-07T13:07:46.606Z,100104.47
2018-08-07T13:10:16.701Z,100101.83
2018-08-07T13:12:45.975Z,100091.77
2018-08-07T13:15:15.660Z,100090.74
2018-08-07T13:17:44.663Z,100092.28
2018-08-07T13:20:13.111Z,100089.66
2018-08-07T13:22:42.734Z,100091.16
2018-08-07T13:25:13.850Z,100084.18
2018-08-07T13:27:42.281Z,100081.19
2018-08-07T13:30:15.801Z,100081.68
2018-08-07T13:32:44.316Z,100078.95
2018-08-07T13:35:13.025Z,100079.27
2018-08-07T13:37:42.994Z,100071.62
2018-08-07T13:40:13.764Z,100073.03
2018-08-07T13:42:42.256Z,100070.05
2018-08-07T13:45:12.767Z,100065.20
2018-08-07T13:47:41.364Z,100062.88
2018-08-07T13:50:13.191Z,100067.87
2018-08-07T13:52:42.236Z,100070.38
2018-08-07T13:55:11.191Z,100062.80
2018-08-07T13:57:39.690Z,100065.41
2018-08-07T14:00:13.400Z,100060.03
2018-08-07T14:02:41.917Z,100050.36
2018-08-07T14:05:10.476Z,100058.31
2018-08-07T14:07:38.910Z,100059.95
2018-08-07T14:10:09.074Z,100058.61
2018-08-07T14:12:37.580Z,100037.98
2018-08-07T14:15:06.585Z,100046.14
2018-08-07T14:17:35.072Z,100055.61
2018-08-07T14:20:03.575Z,100057.23
2018-08-07T14:22:32.080Z,100049.91
2018-08-07T14:25:00.565Z,100055.39
2018-08-07T14:27:29.136Z,100045.84
2018-08-07T14:29:57.545Z,100052.00
2018-08-07T14:32:26.024Z,100049.78
2018-08-07T14:34:54.480Z,100045.76
2018-08-07T14:37:22.937Z,100047.20
2018-08-07T14:39:51.393Z,100046.68
2018-08-07T14:42:19.987Z,100042.85
2018-08-07T14:44:48.410Z,100051.65
2018-08-07T14:47:16.911Z,100055.32
2018-08-07T14:49:45.362Z,100054.80
2018-08-07T14:52:13.828Z,100055.46
2018-08-07T14:54:42.334Z,100051.95
2018-08-07T14:57:10.779Z,100054.21
2018-08-07T14:59:40.120Z,100054.16
2018-08-07T15:02:08.640Z,100045.48
2018-08-07T15:04:37.123Z,100056.22
2018-08-07T15:07:05.617Z,100048.97
2018-08-07T15:09:34.112Z,100046.96
2018-08-07T15:12:02.578Z,100048.89
2018-08-07T15:14:31.036Z,100042.34
2018-08-07T15:16:59.471Z,100045.22
2018-08-07T15:19:27.920Z,100043.99
2018-08-07T15:21:56.379Z,100044.72
2018-08-07T15:24:24.842Z,100039.58
2018-08-07T15:26:53.289Z,100040.02
2018-08-07T15:29:21.735Z,100044.41
2018-08-07T15:31:50.153Z,100032.34
2018-08-07T15:34:18.578Z,100034.58
2018-08-07T15:36:47.021Z,100034.42
2018-08-07T15:39:15.496Z,100033.72
2018-08-07T15:41:43.991Z,100032.05
2018-08-07T15:44:12.391Z,100026.83
2018-08-07T15:46:40.812Z,100024.95
2018-08-07T15:49:09.233Z,100025.78
2018-08-07T15:51:37.723Z,100029.34
2018-08-07T15:54:06.431Z,100021.98
2018-08-07T15:56:34.886Z,100019.61
2018-08-07T15:59:03.352Z,100021.87
2018-08-07T16:01:32.311Z,100028.20
2018-08-07T16:04:00.764Z,100023.05
2018-08-07T16:06:29.209Z,100023.10
2018-08-07T16:08:57.728Z,100020.29
2018-08-07T16:11:26.279Z,100025.45
2018-08-07T16:13:54.816Z,100025.95
2018-08-07T16:16:23.249Z,100028.16
2018-08-07T16:18:51.728Z,100024.83
2018-08-07T16:21:20.288Z,100028.16
2018-08-07T16:23:48.749Z,100020.23
2018-08-07T16:26:17.240Z,100021.08
2018-08-07T16:28:45.726Z,100023.34
2018-08-07T16:31:15.222Z,100024.33
2018-08-07T16:33:43.766Z,100017.03
2018-08-07T16:36:12.227Z,100021.02
2018-08-07T16:38:40.634Z,100023.19
2018-08-07T16:41:09.165Z,100021.85
2018-08-07T16:43:38.199Z,100021.02
2018-08-07T16:46:06.761Z,100024.36
2018-08-07T16:48:35.157Z,100024.66
2018-08-07T16:51:03.632Z,100026.31
2018-08-07T16:53:32.168Z,100026.05
2018-08-07T16:56:00.589Z,100032.33
2018-08-07T16:58:29.049Z,100026.52
2018-08-07T17:00:57.517Z,100025.69
2018-08-07T17:03:25.986Z,100017.03
2018-08-07T17:05:54.398Z,100022.97
2018-08-07T17:08:22.899Z,100020.66
2018-08-07T17:10:51.364Z,100021.13
2018-08-07T17:13:19.856Z,100022.61
2018-08-07T17:15:48.360Z,100023.59
2018-08-07T17:18:16.850Z,100024.03
2018-08-07T17:20:45.410Z,100029.41
2018-08-07T17:23:13.876Z,100028.91
2018-08-07T17:25:42.323Z,100024.74
2018-08-07T17:28:10.760Z,100023.47
2018-08-07T17:30:39.201Z,100023.91
2018-08-07T17:33:07.671Z,100031.47
2018-08-07T17:35:36.125Z,100025.74
2018-08-07T17:38:05.013Z,100037.25
2018-08-07T17:40:33.504Z,100032.47
2018-08-07T17:43:01.991Z,100032.05
2018-08-07T17:45:30.560Z,100038.27
2018-08-07T17:47:59.005Z,100039.63
2018-08-07T17:50:27.841Z,100042.53
2018-08-07T17:52:58.989Z,100041.87
2018-08-07T17:55:27.516Z,100045.44
2018-08-07T17:57:57.384Z,100048.14
2018-08-07T18:00:26.376Z,100057.13
2018-08-07T18:02:54.909Z,100051.39
2018-08-07T18:05:23.390Z,100048.00
2018-08-07T18:07:53.682Z,100053.73
2018-08-07T18:10:23.943Z,100055.70
2018-08-07T18:12:52.460Z,100055.46
2018-08-07T18:15:22.066Z,100059.11
2018-08-07T18:17:50.959Z,100064.75
2018-08-07T18:20:23.830Z,100054.66
2018-08-07T18:22:52.428Z,100059.58
2018-08-07T18:25:20.956Z,100056.91
2018-08-07T18:27:49.583Z,100063.85
2018-08-07T18:30:23.132Z,100065.00
2018-08-07T18:32:51.613Z,100062.34
2018-08-07T18:35:22.240Z,100064.58
2018-08-07T18:37:50.752Z,100065.09
2018-08-07T18:40:19.301Z,100072.19
2018-08-07T18:42:47.851Z,100072.38
2018-08-07T18:45:16.376Z,100068.97
2018-08-07T18:47:45.472Z,100071.69
2018-08-07T18:50:15.451Z,100069.62
2018-08-07T18:52:43.853Z,100071.72
2018-08-07T18:55:13.768Z,100069.00
2018-08-07T18:57:43.268Z,100067.73
2018-08-07T19:00:14.304Z,100062.72
2018-08-07T19:02:42.817Z,100066.98
2018-08-07T19:05:13.211Z,100064.38
2018-08-07T19:07:41.669Z,100060.84
2018-08-07T19:10:10.927Z,100058.08
2018-08-07T19:12:39.408Z,100053.43
2018-08-07T19:15:08.701Z,100057.67
2018-08-07T19:17:37.145Z,100061.66
2018-08-07T19:20:06.636Z,100061.92
2018-08-07T19:22:35.360Z,100072.84
2018-08-07T19:25:03.851Z,100073.81
2018-08-07T19:27:32.387Z,100072.98
2018-08-07T19:30:00.842Z,100072.23
2018-08-07T19:32:29.316Z,100077.52
2018-08-07T19:34:57.764Z,100086.21
2018-08-07T19:37:26.212Z,100086.86
2018-08-07T19:39:54.721Z,100092.66
2018-08-07T19:42:23.219Z,100097.47
2018-08-07T19:44:51.765Z,100101.36
2018-08-07T19:47:20.270Z,100096.88
2018-08-07T19:49:48.731Z,100102.25
2018-08-07T19:52:17.235Z,100106.80
2018-08-07T19:54:45.754Z,100104.52
2018-08-07T19:57:14.230Z,100115.91
2018-08-07T19:59:42.777Z,100111.01
2018-08-07T20:02:11.411Z,100124.91
2018-08-07T20:04:39.872Z,100124.18
2018-08-07T20:07:08.328Z,100126.30
2018-08-07T20:09:36.804Z,100122.77
2018-08-07T20:12:05.380Z,100118.33
2018-08-07T20:14:33.788Z,100115.27
2018-08-07T20:17:02.239Z,100118.11
2018-08-07T20:19:30.774Z,100128.13
2018-08-07T20:21:59.256Z,100123.80
2018-08-07T20:24:27.756Z,100131.42
2018-08-07T20:26:56.231Z,100121.77
2018-08-07T20:29:24.692Z,100120.03
2018-08-07T20:31:53.352Z,100119.27
2018-08-07T20:34:21.873Z,100113.53
2018-08-07T20:36:50.282Z,100108.13
2018-08-07T20:39:18.719Z,100114.59
2018-08-07T20:41:47.201Z,100111.67
2018-08-07T20:44:15.644Z,100107.28
2018-08-07T20:46:44.226Z,100103.14
2018-08-07T20:49:12.653Z,100104.10
2018-08-07T20:51:41.081Z,100105.91
2018-08-07T20:54:09.504Z,100105.81
2018-08-07T20:56:37.957Z,100110.64
2018-08-07T20:59:06.743Z,100110.92
2018-08-07T21:01:35.228Z,100117.69
2018-08-07T21:04:04.632Z,100106.65
2018-08-07T21:06:33.033Z,100108.48
2018-08-07T21:09:01.529Z,100103.62
2018-08-07T21:11:30.055Z,100097.97
2018-08-07T21:13:58.839Z,100081.52
2018-08-07T21:16:27.368Z,100065.76
2018-08-07T21:18:55.717Z,100059.66
2018-08-07T21:21:24.151Z,100043.78
2018-08-07T21:24:35.068Z,100037.16
2018-08-07T21:27:03.613Z,100022.15
2018-08-07T21:29:32.016Z,100017.73
2018-08-07T21:32:00.423Z,100006.20
2018-08-07T21:34:28.988Z,100004.77
2018-08-07T21:36:57.467Z,100012.55
2018-08-07T21:39:25.901Z,100019.34
2018-08-07T21:41:54.413Z,100019.41
2018-08-07T21:44:22.892Z,100030.02
2018-08-07T21:46:51.361Z,100032.55
2018-08-07T21:49:19.972Z,100032.44
2018-08-07T21:51:48.355Z,100031.84
2018-08-07T21:54:16.866Z,100026.91
2018-08-07T21:56:45.308Z,100022.86
2018-08-07T21:59:13.740Z,100019.75
2018-08-07T22:01:42.289Z,100013.08
2018-08-07T22:04:10.827Z,100001.47
2018-08-07T22:06:39.262Z,99994.17
2018-08-07T22:09:09.049Z,99991.97
2018-08-07T22:11:37.617Z,99990.17
2018-08-07T22:14:06.044Z,99983.98
2018-08-07T22:16:34.633Z,99988.21
2018-08-07T22:19:03.172Z,99981.27
2018-08-07T22:21:31.616Z,99975.79
2018-08-07T22:24:00.046Z,99977.59
2018-08-07T22:26:28.515Z,99984.95
2018-08-07T22:28:56.953Z,99988.58
2018-08-07T22:31:25.413Z,99990.06
2018-08-07T22:33:53.787Z,99990.02
2018-08-07T22:36:22.235Z,100002.45
2018-08-07T22:38:50.654Z,100004.61
2018-08-07T22:41:19.161Z,100004.23
2018-08-07T22:43:47.544Z,99999.52
2018-08-07T22:46:16.074Z,99987.23
2018-08-07T22:48:44.517Z,99973.69
2018-08-07T22:51:12.980Z,99963.27
2018-08-07T22:53:41.424Z,99955.39
2018-08-07T22:56:09.881Z,99955.52
2018-08-07T22:58:38.249Z,99949.86
2018-08-07T23:01:06.887Z,99945.04
2018-08-07T23:03:35.357Z,99934.16
2018-08-07T23:06:03.770Z,99934.16
2018-08-07T23:08:32.199Z,99939.62
2018-08-07T23:11:00.635Z,99941.88
2018-08-07T23:13:29.061Z,99934.44
2018-08-07T23:15:57.491Z,99925.80
2018-08-07T23:18:25.911Z,99917.02
2018-08-07T23:20:54.349Z,99916.18
2018-08-07T23:23:22.819Z,99914.47
2018-08-07T23:25:51.224Z,99910.05
2018-08-07T23:28:19.656Z,99921.50
2018-08-07T23:30:48.099Z,99929.31
2018-08-07T23:33:16.576Z,99922.95
2018-08-07T23:35:45.067Z,99912.83
2018-08-07T23:38:13.563Z,99909.63
2018-08-07T23:40:41.957Z,99910.73
2018-08-07T23:43:10.436Z,99918.66
2018-08-07T23:45:38.888Z,99921.86
2018-08-07T23:48:07.633Z,99916.82
2018-08-07T23:50:36.020Z,99907.17
2018-08-07T23:53:04.449Z,99904.34
2018-08-07T23:55:32.936Z,99911.91
2018-08-07T23:58:01.393Z,99918.45
